Time;durP1;ratioP1;P1;durP2;ratioP2;P2;SDS_P1;SDS_P2;PMS_P1;PMS_P2;Temp;Humidity;BMP_temperature;BMP_pressure;BME280_temperature;BME280_humidity;BME280_pressure;Samples;Min_cycle;Max_cycle;Signal;HPM_P1;HPM_P2
2022/02/05 00:02:20;;;;;;;1.42;1.10;;;;;;;;;;5114834;28;20051;-67
2022/02/05 00:04:48;;;;;;;1.40;1.17;;;;;;;;;;5114803;28;20043;-67
2022/02/05 00:07:15;;;;;;;1.30;1.20;;;;;;;;;;5114614;28;20024;-68
2022/02/05 00:41:49;;;;;;;1.08;0.93;;;;;;;;;;5114395;28;20035;-67
2022/02/05 00:44:15;;;;;;;1.13;1.02;;;;;;;;;;5113924;28;20035;-67
2022/02/05 00:46:43;;;;;;;1.63;1.00;;;;;;;;;;5114117;28;20016;-67
2022/02/05 00:49:09;;;;;;;1.20;0.93;;;;;;;;;;5113720;28;20031;-67
2022/02/05 00:51:41;;;;;;;1.45;1.10;;;;;;;;;;5114162;28;20402;-67
2022/02/05 00:54:15;;;;;;;1.35;0.90;;;;;;;;;;5113424;28;20066;-67
2022/02/05 00:56:51;;;;;;;1.27;0.93;;;;;;;;;;5093461;28;20039;-67
2022/02/05 00:59:20;;;;;;;1.27;1.00;;;;;;;;;;5093606;28;20457;-67
2022/02/05 01:01:47;;;;;;;1.50;0.90;;;;;;;;;;5093575;28;20077;-68
2022/02/05 01:04:14;;;;;;;1.27;1.05;;;;;;;;;;5091916;28;20044;-67
2022/02/05 01:06:40;;;;;;;1.52;1.00;;;;;;;;;;5093561;28;20534;-67
2022/02/05 01:09:12;;;;;;;1.60;1.05;;;;;;;;;;5093144;28;20743;-67
2022/02/05 01:11:39;;;;;;;1.27;0.98;;;;;;;;;;5093550;28;20016;-67
2022/02/05 01:14:08;;;;;;;1.05;0.73;;;;;;;;;;5093075;28;20103;-67
2022/02/05 01:19:51;;;;;;;1.63;1.17;;;;;;;;;;5093351;28;20415;-67
2022/02/05 01:22:07;;;;;;;1.35;1.00;;;;;;;;;;5091559;28;20559;-67
2022/02/05 01:24:34;;;;;;;1.20;0.90;;;;;;;;;;5092711;28;20036;-67
2022/02/05 01:27:09;;;;;;;1.63;1.20;;;;;;;;;;5092949;28;20107;-67
2022/02/05 01:32:09;;;;;;;1.35;0.95;;;;;;;;;;5093174;28;20024;-67
2022/02/05 01:53:32;;;;;;;1.20;0.80;;;;;;;;;;5112941;28;20023;-67
2022/02/05 01:59:43;;;;;;;1.02;0.90;;;;;;;;;;5112741;28;20027;-67
2022/02/05 02:12:39;;;;;;;0.85;0.77;;;;;;;;;;5030353;28;20033;-67
2022/02/05 02:15:16;;;;;;;1.52;1.27;;;;;;;;;;5029682;28;20447;-67
2022/02/05 02:28:24;;;;;;;1.10;0.75;;;;;;;;;;5112714;28;20040;-67
2022/02/05 02:30:56;;;;;;;0.93;0.70;;;;;;;;;;5113163;28;20055;-67
2022/02/05 02:33:30;;;;;;;0.70;0.70;;;;;;;;;;5112628;28;20030;-68
2022/02/05 02:35:57;;;;;;;1.92;0.60;;;;;;;;;;5112779;28;20486;-67
2022/02/05 02:38:31;;;;;;;1.23;0.90;;;;;;;;;;5112518;28;20038;-67
2022/02/05 02:41:06;;;;;;;0.95;0.82;;;;;;;;;;5112437;28;20020;-67
2022/02/05 02:43:34;;;;;;;1.35;0.80;;;;;;;;;;5091906;28;20039;-67
2022/02/05 02:46:00;;;;;;;1.00;0.60;;;;;;;;;;5091880;28;20024;-67
2022/02/05 02:48:27;;;;;;;0.88;0.80;;;;;;;;;;5092235;28;20040;-67
2022/02/05 02:58:51;;;;;;;1.40;1.08;;;;;;;;;;5112186;28;20379;-67
2022/02/05 03:01:19;;;;;;;1.10;0.85;;;;;;;;;;5112423;28;20506;-67
2022/02/05 03:03:45;;;;;;;0.70;0.60;;;;;;;;;;5111997;28;20055;-67
2022/02/05 03:06:12;;;;;;;1.20;0.88;;;;;;;;;;5112148;28;20536;-67
2022/02/05 03:08:38;;;;;;;1.85;0.85;;;;;;;;;;5112232;28;20026;-67
2022/02/05 03:11:04;;;;;;;2.17;0.90;;;;;;;;;;5112075;28;20474;-67
2022/02/05 03:13:30;;;;;;;0.73;0.70;;;;;;;;;;5112237;28;20084;-67
2022/02/05 03:15:56;;;;;;;0.80;0.70;;;;;;;;;;5111788;28;20024;-67
2022/02/05 03:18:33;;;;;;;0.88;0.60;;;;;;;;;;5112010;28;20032;-67
2022/02/05 03:20:59;;;;;;;2.25;0.88;;;;;;;;;;5111857;28;20095;-67
2022/02/05 03:23:25;;;;;;;1.38;0.98;;;;;;;;;;5112138;28;20032;-67
2022/02/05 03:25:51;;;;;;;0.70;0.70;;;;;;;;;;5111913;28;20024;-67
2022/02/05 03:28:17;;;;;;;1.50;0.65;;;;;;;;;;5114321;28;20023;-67
2022/02/05 03:30:44;;;;;;;0.82;0.60;;;;;;;;;;5115538;28;20026;-68
2022/02/05 03:33:10;;;;;;;0.60;0.52;;;;;;;;;;5115779;28;20024;-67
2022/02/05 03:35:36;;;;;;;0.65;0.57;;;;;;;;;;5115179;28;20031;-67
2022/02/05 03:38:03;;;;;;;0.88;0.68;;;;;;;;;;5115905;28;20072;-67
2022/02/05 03:40:29;;;;;;;0.90;0.80;;;;;;;;;;5115360;28;20054;-67
2022/02/05 03:42:55;;;;;;;1.55;0.93;;;;;;;;;;5115514;28;20020;-67
2022/02/05 03:45:21;;;;;;;1.52;0.82;;;;;;;;;;5115081;28;20034;-67
2022/02/05 03:47:50;;;;;;;0.80;0.60;;;;;;;;;;5115594;28;20398;-67
2022/02/05 03:50:16;;;;;;;0.82;0.75;;;;;;;;;;5096887;28;20085;-67
2022/02/05 03:52:43;;;;;;;0.50;0.50;;;;;;;;;;5115271;28;20015;-67
2022/02/05 03:55:10;;;;;;;0.60;0.60;;;;;;;;;;5115005;28;20019;-67
2022/02/05 03:57:36;;;;;;;0.70;0.60;;;;;;;;;;5115034;28;20019;-67
2022/02/05 04:00:09;;;;;;;0.93;0.68;;;;;;;;;;5114972;28;20059;-67
2022/02/05 04:02:35;;;;;;;0.60;0.52;;;;;;;;;;5114936;28;20027;-67
2022/02/05 04:05:02;;;;;;;0.60;0.55;;;;;;;;;;5114725;28;20042;-67
2022/02/05 04:07:31;;;;;;;2.63;0.80;;;;;;;;;;5114843;28;20016;-67
2022/02/05 04:10:00;;;;;;;1.23;0.65;;;;;;;;;;5114777;28;20093;-67
2022/02/05 04:17:56;;;;;;;0.55;0.47;;;;;;;;;;5114669;28;20402;-67
2022/02/05 04:20:22;;;;;;;1.42;0.60;;;;;;;;;;5114866;28;20111;-67
2022/02/05 04:22:48;;;;;;;1.63;0.50;;;;;;;;;;5114574;28;20398;-68
2022/02/05 04:25:14;;;;;;;0.82;0.75;;;;;;;;;;5114709;28;20024;-66
2022/02/05 04:27:40;;;;;;;1.13;0.50;;;;;;;;;;5114773;28;20089;-66
2022/02/05 04:30:07;;;;;;;1.15;0.50;;;;;;;;;;5114110;28;20077;-66
2022/02/05 04:32:33;;;;;;;1.38;0.70;;;;;;;;;;5114427;28;20024;-67
2022/02/05 04:34:59;;;;;;;1.35;0.95;;;;;;;;;;5114169;28;20035;-67
2022/02/05 04:37:28;;;;;;;1.63;0.75;;;;;;;;;;5114309;28;20077;-67
2022/02/05 04:40:08;;;;;;;0.73;0.50;;;;;;;;;;5114539;28;20556;-67
2022/02/05 04:43:07;;;;;;;0.77;0.52;;;;;;;;;;5114101;28;20024;-67
2022/02/05 04:45:57;;;;;;;1.17;0.85;;;;;;;;;;5113972;28;20032;-67
2022/02/05 04:56:31;;;;;;;1.48;0.70;;;;;;;;;;5113894;28;20028;-67
2022/02/05 05:02:03;;;;;;;2.08;0.80;;;;;;;;;;5113797;28;20036;-67
2022/02/05 05:12:36;;;;;;;1.27;0.70;;;;;;;;;;5113656;28;20479;-67
2022/02/05 05:20:31;;;;;;;1.02;0.60;;;;;;;;;;5113772;28;20042;-67
2022/02/05 05:22:57;;;;;;;0.80;0.60;;;;;;;;;;5113598;28;20030;-67
2022/02/05 05:25:24;;;;;;;1.02;0.55;;;;;;;;;;5113765;28;20378;-67
2022/02/05 05:27:50;;;;;;;0.65;0.40;;;;;;;;;;5113594;28;20046;-67
2022/02/05 05:30:16;;;;;;;0.52;0.50;;;;;;;;;;5113584;28;20405;-67
2022/02/05 05:32:43;;;;;;;0.90;0.65;;;;;;;;;;5113763;28;20024;-67
2022/02/05 05:35:09;;;;;;;1.30;0.70;;;;;;;;;;5113919;28;20035;-67
2022/02/05 05:37:36;;;;;;;1.42;0.50;;;;;;;;;;5113838;28;20072;-67
2022/02/05 05:40:02;;;;;;;0.75;0.57;;;;;;;;;;5113920;28;20035;-67
2022/02/05 05:42:32;;;;;;;0.60;0.50;;;;;;;;;;5113937;28;20023;-68
2022/02/05 05:47:57;;;;;;;2.88;0.50;;;;;;;;;;5113119;28;20027;-67
2022/02/05 05:53:09;;;;;;;0.77;0.60;;;;;;;;;;5113684;28;20474;-67
2022/02/05 05:55:35;;;;;;;0.65;0.50;;;;;;;;;;5113101;28;20035;-67
2022/02/05 05:58:02;;;;;;;3.13;0.88;;;;;;;;;;5112719;28;20035;-67
2022/02/05 06:00:28;;;;;;;0.80;0.60;;;;;;;;;;5113180;28;20039;-67
2022/02/05 06:02:54;;;;;;;0.73;0.60;;;;;;;;;;5112549;28;20043;-68
2022/02/05 06:05:20;;;;;;;0.60;0.45;;;;;;;;;;5112788;28;20031;-67
2022/02/05 06:07:46;;;;;;;0.50;0.40;;;;;;;;;;5112791;28;20019;-67
2022/02/05 06:10:12;;;;;;;0.95;0.60;;;;;;;;;;5113161;28;20023;-67
2022/02/05 06:12:38;;;;;;;1.30;0.70;;;;;;;;;;5112726;28;20012;-67
2022/02/05 06:15:07;;;;;;;1.13;0.60;;;;;;;;;;5112968;28;20406;-67
2022/02/05 06:17:34;;;;;;;0.63;0.55;;;;;;;;;;5112604;28;20050;-67
2022/02/05 06:20:00;;;;;;;1.95;0.70;;;;;;;;;;5094878;28;20062;-67
2022/02/05 06:22:26;;;;;;;0.60;0.50;;;;;;;;;;5112430;28;20070;-67
2022/02/05 06:24:52;;;;;;;0.90;0.50;;;;;;;;;;5112902;28;20447;-67
2022/02/05 06:27:18;;;;;;;0.40;0.40;;;;;;;;;;5112403;28;20059;-67
2022/02/05 06:29:44;;;;;;;0.75;0.65;;;;;;;;;;5112652;28;20016;-67
2022/02/05 06:32:10;;;;;;;1.30;0.60;;;;;;;;;;5112530;28;20083;-67
2022/02/05 06:34:37;;;;;;;0.40;0.40;;;;;;;;;;5112317;28;20486;-67
2022/02/05 06:37:03;;;;;;;1.17;0.50;;;;;;;;;;5112614;28;20024;-67
2022/02/05 06:39:29;;;;;;;0.65;0.47;;;;;;;;;;5112400;28;20027;-67
2022/02/05 06:41:55;;;;;;;1.23;0.50;;;;;;;;;;5104317;28;20028;-67
2022/02/05 06:44:21;;;;;;;1.27;0.57;;;;;;;;;;5091986;28;20440;-67
2022/02/05 06:46:47;;;;;;;0.70;0.40;;;;;;;;;;5091973;28;20039;-68
2022/02/05 06:49:13;;;;;;;0.52;0.35;;;;;;;;;;5091924;28;20024;-67
2022/02/05 06:51:39;;;;;;;0.63;0.52;;;;;;;;;;5092220;28;20502;-67
2022/02/05 06:54:05;;;;;;;0.82;0.60;;;;;;;;;;5106926;28;20012;-67
2022/02/05 06:56:31;;;;;;;0.65;0.43;;;;;;;;;;5092523;28;20028;-67
2022/02/05 06:58:58;;;;;;;0.57;0.43;;;;;;;;;;5091661;28;20054;-67
2022/02/05 07:01:24;;;;;;;1.77;0.55;;;;;;;;;;5092407;28;20028;-67
2022/02/05 07:03:50;;;;;;;2.22;0.60;;;;;;;;;;5110931;28;20050;-68
2022/02/05 07:06:16;;;;;;;0.73;0.40;;;;;;;;;;5097821;28;20498;-68
2022/02/05 07:08:43;;;;;;;1.77;0.68;;;;;;;;;;5115905;28;20454;-68
2022/02/05 07:11:09;;;;;;;0.50;0.30;;;;;;;;;;5115967;28;20034;-68
2022/02/05 07:13:35;;;;;;;0.65;0.50;;;;;;;;;;5115901;28;20023;-67
2022/02/05 07:18:45;;;;;;;2.13;0.52;;;;;;;;;;5115687;28;20058;-67
2022/02/05 07:21:15;;;;;;;1.33;0.55;;;;;;;;;;5115863;28;20038;-67
2022/02/05 07:29:15;;;;;;;0.45;0.30;;;;;;;;;;5115593;28;20038;-67
2022/02/05 07:31:45;;;;;;;1.25;0.65;;;;;;;;;;5115986;28;20022;-67
2022/02/05 07:34:12;;;;;;;0.52;0.30;;;;;;;;;;5115504;28;20081;-67
2022/02/05 07:36:38;;;;;;;0.57;0.45;;;;;;;;;;5116075;28;20489;-67
2022/02/05 07:39:08;;;;;;;0.73;0.40;;;;;;;;;;5115228;28;20030;-67
2022/02/05 07:41:36;;;;;;;2.13;0.50;;;;;;;;;;5115330;28;20019;-67
2022/02/05 07:44:03;;;;;;;0.38;0.35;;;;;;;;;;5115435;28;20023;-67
2022/02/05 07:46:29;;;;;;;0.70;0.45;;;;;;;;;;5115525;28;20023;-67
2022/02/05 07:48:55;;;;;;;0.40;0.30;;;;;;;;;;5115078;28;20023;-67
2022/02/05 07:51:21;;;;;;;0.85;0.50;;;;;;;;;;5115559;28;20031;-67
2022/02/05 07:53:47;;;;;;;1.27;0.50;;;;;;;;;;5114882;28;20034;-67
2022/02/05 07:56:14;;;;;;;0.88;0.50;;;;;;;;;;5115227;28;20036;-67
2022/02/05 07:58:40;;;;;;;0.80;0.40;;;;;;;;;;5115177;28;20485;-67
2022/02/05 08:01:06;;;;;;;0.57;0.40;;;;;;;;;;5115635;28;20398;-67
2022/02/05 08:03:32;;;;;;;0.55;0.30;;;;;;;;;;5114806;28;20039;-67
2022/02/05 08:05:59;;;;;;;0.50;0.30;;;;;;;;;;5114912;28;20030;-67
2022/02/05 08:08:28;;;;;;;0.93;0.45;;;;;;;;;;5114782;28;20030;-68
2022/02/05 08:10:58;;;;;;;0.68;0.30;;;;;;;;;;5114756;28;20096;-68
2022/02/05 08:13:30;;;;;;;0.88;0.30;;;;;;;;;;5114388;28;20019;-67
2022/02/05 08:16:08;;;;;;;1.95;0.70;;;;;;;;;;5114933;28;20077;-67
2022/02/05 08:18:36;;;;;;;0.50;0.47;;;;;;;;;;5114643;28;20095;-67
2022/02/05 08:21:02;;;;;;;1.17;0.45;;;;;;;;;;5114503;28;20023;-67
2022/02/05 08:23:29;;;;;;;0.60;0.40;;;;;;;;;;5114465;28;20056;-67
2022/02/05 08:25:55;;;;;;;0.35;0.28;;;;;;;;;;5114457;28;20023;-67
2022/02/05 08:28:22;;;;;;;0.47;0.35;;;;;;;;;;5096615;28;20027;-67
2022/02/05 08:30:48;;;;;;;0.77;0.40;;;;;;;;;;5114274;28;20023;-67
2022/02/05 08:33:14;;;;;;;0.50;0.50;;;;;;;;;;5114310;28;20034;-67
2022/02/05 08:35:41;;;;;;;3.50;0.50;;;;;;;;;;5114363;28;20047;-67
2022/02/05 08:38:09;;;;;;;0.50;0.40;;;;;;;;;;5114286;28;20051;-67
2022/02/05 08:40:35;;;;;;;1.00;0.57;;;;;;;;;;5114047;28;20106;-67
2022/02/05 08:43:01;;;;;;;0.55;0.40;;;;;;;;;;5114062;28;20027;-67
2022/02/05 08:45:27;;;;;;;0.90;0.50;;;;;;;;;;5113944;28;20023;-67
2022/02/05 08:47:53;;;;;;;0.80;0.55;;;;;;;;;;5114405;28;20028;-67
2022/02/05 08:50:19;;;;;;;0.60;0.40;;;;;;;;;;5113967;28;20016;-67
2022/02/05 08:52:51;;;;;;;0.40;0.30;;;;;;;;;;5114313;28;20015;-67
2022/02/05 08:55:18;;;;;;;0.40;0.40;;;;;;;;;;5113698;28;20054;-67
2022/02/05 08:57:44;;;;;;;0.50;0.30;;;;;;;;;;5114225;28;20532;-67
2022/02/05 09:00:15;;;;;;;0.80;0.40;;;;;;;;;;5113577;28;20042;-67
2022/02/05 09:03:24;;;;;;;0.40;0.30;;;;;;;;;;5113804;28;20059;-67
2022/02/05 09:08:09;;;;;;;0.47;0.38;;;;;;;;;;5114131;28;20120;-67
2022/02/05 09:10:54;;;;;;;0.60;0.40;;;;;;;;;;5113446;28;20031;-67
2022/02/05 09:16:11;;;;;;;0.60;0.45;;;;;;;;;;5075300;28;20027;-67
2022/02/05 09:18:38;;;;;;;1.42;0.40;;;;;;;;;;5095076;28;20522;-67
2022/02/05 09:21:04;;;;;;;0.32;0.32;;;;;;;;;;5113207;28;20054;-67
2022/02/05 09:23:30;;;;;;;1.48;0.50;;;;;;;;;;5113369;28;20038;-67
2022/02/05 09:26:00;;;;;;;0.73;0.50;;;;;;;;;;5112532;28;20397;-67
2022/02/05 09:28:28;;;;;;;0.60;0.40;;;;;;;;;;5113366;28;20401;-67
2022/02/05 09:33:27;;;;;;;0.20;0.20;;;;;;;;;;5113086;28;20035;-67
2022/02/05 09:35:53;;;;;;;0.60;0.32;;;;;;;;;;5112907;28;20261;-67
2022/02/05 09:38:19;;;;;;;0.50;0.40;;;;;;;;;;5113255;28;20367;-67
2022/02/05 09:40:46;;;;;;;0.88;0.30;;;;;;;;;;5112929;28;20023;-67
2022/02/05 09:43:13;;;;;;;0.60;0.40;;;;;;;;;;5112955;28;20020;-67
2022/02/05 09:45:39;;;;;;;0.43;0.22;;;;;;;;;;5112733;28;20074;-67
2022/02/05 09:48:07;;;;;;;0.63;0.32;;;;;;;;;;5112894;28;20019;-67
2022/02/05 09:50:36;;;;;;;0.50;0.30;;;;;;;;;;5112693;28;20024;-67
2022/02/05 09:53:15;;;;;;;0.65;0.40;;;;;;;;;;5113235;28;20016;-67
2022/02/05 09:55:42;;;;;;;0.57;0.40;;;;;;;;;;5112443;28;20032;-67
2022/02/05 09:58:08;;;;;;;0.50;0.30;;;;;;;;;;5112903;28;20035;-67
2022/02/05 10:00:35;;;;;;;0.40;0.30;;;;;;;;;;5112469;28;20039;-67
2022/02/05 10:03:03;;;;;;;0.40;0.30;;;;;;;;;;5112916;28;20086;-67
2022/02/05 10:05:31;;;;;;;0.40;0.32;;;;;;;;;;5112399;28;20042;-67
2022/02/05 10:08:02;;;;;;;0.20;0.20;;;;;;;;;;5112993;28;20424;-67
2022/02/05 10:10:41;;;;;;;0.40;0.25;;;;;;;;;;5094301;28;20163;-67
2022/02/05 10:13:11;;;;;;;0.45;0.32;;;;;;;;;;5112769;28;20061;-67
2022/02/05 10:15:38;;;;;;;0.38;0.30;;;;;;;;;;5112409;28;20034;-67
2022/02/05 10:18:05;;;;;;;0.63;0.30;;;;;;;;;;5112552;28;20110;-67
2022/02/05 10:20:31;;;;;;;0.40;0.30;;;;;;;;;;5112613;28;20020;-67
2022/02/05 10:23:06;;;;;;;0.85;0.40;;;;;;;;;;5112460;28;20106;-67
2022/02/05 10:25:32;;;;;;;0.40;0.25;;;;;;;;;;5112183;28;20106;-67
2022/02/05 10:27:58;;;;;;;0.28;0.20;;;;;;;;;;5112423;28;20482;-67
2022/02/05 10:30:28;;;;;;;0.20;0.20;;;;;;;;;;5112421;28;20058;-67
2022/02/05 10:33:00;;;;;;;0.88;0.30;;;;;;;;;;5112438;28;20019;-67
2022/02/05 10:35:39;;;;;;;0.20;0.13;;;;;;;;;;5112315;28;20027;-67
2022/02/05 10:41:00;;;;;;;0.38;0.30;;;;;;;;;;5116675;28;20031;-67
2022/02/05 10:43:33;;;;;;;0.60;0.30;;;;;;;;;;5076339;28;20082;-67
2022/02/05 10:46:01;;;;;;;0.57;0.30;;;;;;;;;;5075696;28;20028;-67
2022/02/05 10:48:27;;;;;;;0.70;0.40;;;;;;;;;;5075657;28;20024;-67
2022/02/05 10:50:56;;;;;;;0.30;0.30;;;;;;;;;;5075597;28;20074;-67
2022/02/05 10:53:26;;;;;;;0.40;0.30;;;;;;;;;;5093524;28;20533;-67
2022/02/05 11:07:03;;;;;;;1.10;0.30;;;;;;;;;;5115860;28;20405;-67
2022/02/05 11:09:29;;;;;;;0.57;0.30;;;;;;;;;;5116281;28;20531;-67
2022/02/05 11:20:02;;;;;;;0.20;0.20;;;;;;;;;;5116032;28;20024;-67
2022/02/05 11:22:29;;;;;;;1.02;0.30;;;;;;;;;;5115689;28;20024;-67
2022/02/05 11:24:55;;;;;;;0.20;0.15;;;;;;;;;;5115824;28;20047;-67
2022/02/05 11:27:22;;;;;;;0.22;0.20;;;;;;;;;;5115559;28;20553;-67
2022/02/05 11:29:48;;;;;;;0.20;0.20;;;;;;;;;;5115793;28;20460;-67
2022/02/05 11:32:24;;;;;;;0.20;0.20;;;;;;;;;;5115581;28;20111;-67
2022/02/05 11:35:07;;;;;;;0.50;0.15;;;;;;;;;;5097175;28;20031;-67
2022/02/05 11:38:09;;;;;;;0.50;0.28;;;;;;;;;;5115185;28;20110;-67
2022/02/05 11:40:43;;;;;;;0.43;0.20;;;;;;;;;;5032808;28;20025;-67
2022/02/05 11:43:15;;;;;;;0.20;0.20;;;;;;;;;;5103394;28;20032;-67
2022/02/05 11:45:41;;;;;;;0.30;0.20;;;;;;;;;;5115366;28;20115;-67
2022/02/05 11:48:26;;;;;;;0.52;0.30;;;;;;;;;;5114146;28;20490;-67
2022/02/05 11:51:12;;;;;;;0.57;0.30;;;;;;;;;;5115272;28;20091;-67
2022/02/05 11:53:59;;;;;;;0.15;0.15;;;;;;;;;;5053293;28;20039;-67
2022/02/05 11:59:14;;;;;;;0.22;0.20;;;;;;;;;;5115403;28;20118;-67
2022/02/05 12:01:41;;;;;;;0.30;0.30;;;;;;;;;;5115010;28;20375;-67
2022/02/05 12:04:14;;;;;;;0.20;0.20;;;;;;;;;;5114726;28;20055;-67
2022/02/05 12:06:46;;;;;;;0.20;0.10;;;;;;;;;;5114919;28;20015;-67
2022/02/05 12:09:30;;;;;;;0.30;0.30;;;;;;;;;;5115184;28;20486;-67
2022/02/05 12:11:56;;;;;;;1.35;0.22;;;;;;;;;;5114852;28;20020;-67
2022/02/05 12:14:23;;;;;;;0.77;0.20;;;;;;;;;;5114780;28;20031;-67
2022/02/05 12:17:14;;;;;;;0.10;0.10;;;;;;;;;;5115039;28;20024;-67
2022/02/05 12:19:59;;;;;;;0.20;0.20;;;;;;;;;;5114706;28;20085;-67
2022/02/05 12:22:45;;;;;;;0.20;0.20;;;;;;;;;;5114517;28;20028;-67
2022/02/05 12:25:12;;;;;;;2.38;0.20;;;;;;;;;;5114555;28;20059;-67
2022/02/05 12:27:38;;;;;;;0.50;0.30;;;;;;;;;;5114405;28;20383;-68
2022/02/05 12:30:23;;;;;;;0.40;0.30;;;;;;;;;;5114568;28;20035;-68
2022/02/05 12:32:50;;;;;;;0.13;0.10;;;;;;;;;;5114116;28;20490;-68
2022/02/05 12:35:16;;;;;;;0.30;0.20;;;;;;;;;;5114589;28;20363;-68
2022/02/05 12:37:42;;;;;;;0.30;0.20;;;;;;;;;;5113813;28;20367;-68
2022/02/05 12:40:09;;;;;;;0.55;0.20;;;;;;;;;;5114507;28;20059;-68
2022/02/05 12:42:39;;;;;;;0.35;0.20;;;;;;;;;;5114012;28;20094;-68
2022/02/05 12:45:05;;;;;;;0.50;0.30;;;;;;;;;;5114134;28;20107;-68
2022/02/05 12:47:38;;;;;;;0.47;0.32;;;;;;;;;;5113995;28;20066;-67
2022/02/05 12:50:10;;;;;;;0.98;0.20;;;;;;;;;;5114208;28;20027;-67
2022/02/05 12:52:36;;;;;;;0.15;0.15;;;;;;;;;;5113842;28;20027;-67
2022/02/05 12:55:04;;;;;;;0.20;0.20;;;;;;;;;;5113957;28;20437;-68
2022/02/05 12:57:31;;;;;;;0.80;0.40;;;;;;;;;;5113948;28;20028;-67
2022/02/05 13:00:07;;;;;;;0.30;0.20;;;;;;;;;;5113795;28;20114;-67
2022/02/05 13:02:33;;;;;;;0.40;0.32;;;;;;;;;;5113788;28;20100;-67
2022/02/05 13:05:00;;;;;;;0.40;0.30;;;;;;;;;;5113667;28;20032;-67
2022/02/05 13:07:27;;;;;;;0.30;0.20;;;;;;;;;;5113656;28;20031;-67
2022/02/05 13:09:56;;;;;;;0.10;0.10;;;;;;;;;;5114031;28;20038;-67
2022/02/05 13:12:29;;;;;;;0.30;0.20;;;;;;;;;;5113934;28;20042;-67
2022/02/05 13:15:03;;;;;;;0.20;0.17;;;;;;;;;;5113956;28;20024;-67
2022/02/05 13:17:49;;;;;;;0.20;0.20;;;;;;;;;;5113607;28;20104;-67
2022/02/05 13:28:24;;;;;;;0.20;0.20;;;;;;;;;;5113596;28;20032;-67
2022/02/05 13:36:15;;;;;;;0.30;0.20;;;;;;;;;;5113459;28;20039;-67
2022/02/05 13:39:00;;;;;;;0.20;0.15;;;;;;;;;;5113216;28;20031;-67
2022/02/05 13:41:32;;;;;;;0.20;0.20;;;;;;;;;;5113593;28;20122;-67
2022/02/05 13:43:59;;;;;;;0.35;0.30;;;;;;;;;;5113095;28;20031;-67
2022/02/05 13:46:26;;;;;;;1.08;0.22;;;;;;;;;;5113449;28;20027;-67
2022/02/05 13:48:53;;;;;;;0.22;0.20;;;;;;;;;;5112685;28;20019;-67
2022/02/05 13:51:19;;;;;;;1.08;0.20;;;;;;;;;;5113282;28;20031;-67
2022/02/05 13:53:57;;;;;;;0.40;0.20;;;;;;;;;;5113032;28;20386;-67
2022/02/05 13:56:23;;;;;;;0.82;0.20;;;;;;;;;;5112922;28;20044;-67
2022/02/05 13:58:49;;;;;;;0.65;0.20;;;;;;;;;;5112884;28;20493;-67
2022/02/05 14:01:32;;;;;;;0.30;0.30;;;;;;;;;;5112649;28;20016;-67
2022/02/05 14:04:11;;;;;;;0.20;0.20;;;;;;;;;;5112393;28;20096;-67
2022/02/05 14:07:09;;;;;;;0.15;0.15;;;;;;;;;;5113332;28;20073;-67
2022/02/05 14:09:36;;;;;;;0.20;0.10;;;;;;;;;;5057596;28;20521;-67
2022/02/05 14:12:18;;;;;;;0.20;0.20;;;;;;;;;;5112848;28;20020;-67
2022/02/05 14:14:45;;;;;;;0.35;0.25;;;;;;;;;;5113077;28;20024;-67
2022/02/05 14:17:17;;;;;;;0.10;0.10;;;;;;;;;;5113246;28;20027;-67
2022/02/05 14:19:44;;;;;;;0.28;0.28;;;;;;;;;;5112346;28;20032;-67
2022/02/05 14:22:20;;;;;;;0.40;0.22;;;;;;;;;;5112819;28;20054;-67
2022/02/05 14:25:03;;;;;;;0.75;0.30;;;;;;;;;;5112388;28;20028;-67
2022/02/05 14:27:31;;;;;;;0.13;0.10;;;;;;;;;;5112984;28;20034;-67
2022/02/05 14:30:07;;;;;;;0.30;0.20;;;;;;;;;;5112241;28;20023;-67
2022/02/05 14:42:54;;;;;;;0.10;0.10;;;;;;;;;;5112269;28;20025;-67
2022/02/05 14:45:20;;;;;;;0.20;0.20;;;;;;;;;;5112001;28;20055;-67
2022/02/05 14:47:46;;;;;;;0.17;0.17;;;;;;;;;;5112730;28;20385;-67
2022/02/05 14:50:13;;;;;;;0.20;0.20;;;;;;;;;;5111953;28;20028;-67
2022/02/05 14:52:40;;;;;;;1.00;0.13;;;;;;;;;;5112508;28;20019;-67
2022/02/05 14:55:06;;;;;;;0.50;0.20;;;;;;;;;;5111769;28;20024;-67
2022/02/05 14:57:32;;;;;;;0.35;0.20;;;;;;;;;;5112463;28;20024;-67
2022/02/05 14:59:58;;;;;;;0.63;0.20;;;;;;;;;;5112015;28;20490;-67
2022/02/05 15:02:24;;;;;;;0.40;0.20;;;;;;;;;;5111933;28;20044;-67
2022/02/05 15:04:50;;;;;;;0.22;0.20;;;;;;;;;;5111920;28;20067;-67
2022/02/05 15:07:19;;;;;;;0.35;0.30;;;;;;;;;;5112326;28;20020;-67
2022/02/05 15:09:45;;;;;;;0.28;0.20;;;;;;;;;;5111998;28;20019;-67
2022/02/05 15:12:11;;;;;;;0.20;0.20;;;;;;;;;;5094016;28;20443;-67
2022/02/05 15:14:37;;;;;;;0.32;0.32;;;;;;;;;;5111987;28;20136;-67
2022/02/05 15:17:05;;;;;;;0.38;0.15;;;;;;;;;;5112238;28;20035;-67
2022/02/05 15:19:31;;;;;;;0.20;0.13;;;;;;;;;;5093690;28;20386;-67
2022/02/05 15:21:57;;;;;;;0.28;0.15;;;;;;;;;;5112132;28;20107;-67
2022/02/05 15:24:23;;;;;;;0.90;0.20;;;;;;;;;;5114680;28;20601;-67
2022/02/05 15:26:50;;;;;;;0.30;0.20;;;;;;;;;;5115694;28;20015;-67
2022/02/05 15:29:16;;;;;;;0.20;0.20;;;;;;;;;;5116012;28;20397;-68
2022/02/05 15:31:45;;;;;;;0.60;0.32;;;;;;;;;;5115550;28;20096;-67
2022/02/05 15:34:12;;;;;;;0.20;0.20;;;;;;;;;;5115760;28;20035;-67
2022/02/05 15:36:47;;;;;;;0.40;0.30;;;;;;;;;;5115498;28;20525;-67
2022/02/05 15:39:22;;;;;;;1.17;0.30;;;;;;;;;;5115581;28;20100;-67
2022/02/05 15:44:33;;;;;;;0.43;0.32;;;;;;;;;;5115391;28;20077;-67
2022/02/05 15:46:59;;;;;;;0.35;0.30;;;;;;;;;;5115335;28;20022;-67
2022/02/05 15:49:26;;;;;;;0.50;0.50;;;;;;;;;;5115701;28;20054;-68
2022/02/05 15:51:53;;;;;;;0.50;0.20;;;;;;;;;;5115483;28;20020;-68
2022/02/05 15:54:22;;;;;;;0.30;0.30;;;;;;;;;;5115182;28;20126;-69
2022/02/05 15:57:16;;;;;;;0.28;0.20;;;;;;;;;;5115052;28;20020;-68
2022/02/05 16:02:12;;;;;;;0.30;0.25;;;;;;;;;;5114777;28;20059;-69
2022/02/05 16:04:38;;;;;;;0.30;0.30;;;;;;;;;;5115254;28;20067;-67
2022/02/05 16:07:04;;;;;;;0.50;0.30;;;;;;;;;;5114699;28;20402;-67
2022/02/05 16:09:31;;;;;;;0.52;0.30;;;;;;;;;;5115181;28;20084;-67
2022/02/05 16:11:57;;;;;;;0.65;0.30;;;;;;;;;;5114742;28;20031;-67
2022/02/05 16:14:23;;;;;;;0.40;0.20;;;;;;;;;;5114890;28;20039;-67
2022/02/05 16:16:49;;;;;;;0.32;0.30;;;;;;;;;;5114593;28;20050;-67
2022/02/05 16:19:15;;;;;;;0.28;0.25;;;;;;;;;;5115105;28;20027;-67
2022/02/05 16:21:41;;;;;;;0.50;0.30;;;;;;;;;;5115269;28;20431;-69
2022/02/05 16:24:07;;;;;;;0.47;0.32;;;;;;;;;;5114790;28;20031;-67
2022/02/05 16:26:34;;;;;;;2.40;0.30;;;;;;;;;;5114337;28;20072;-67
2022/02/05 16:29:00;;;;;;;0.30;0.30;;;;;;;;;;5114746;28;20022;-68
2022/02/05 16:31:26;;;;;;;0.50;0.30;;;;;;;;;;5114267;28;20081;-67
2022/02/05 16:33:54;;;;;;;0.40;0.40;;;;;;;;;;5114486;28;20102;-67
2022/02/05 16:36:27;;;;;;;0.40;0.20;;;;;;;;;;5114179;28;20012;-67
2022/02/05 16:38:58;;;;;;;0.30;0.17;;;;;;;;;;5114561;28;20055;-67
2022/02/05 16:41:24;;;;;;;0.20;0.20;;;;;;;;;;5114260;28;20048;-67
2022/02/05 16:43:51;;;;;;;0.55;0.40;;;;;;;;;;5114390;28;20027;-68
2022/02/05 16:46:21;;;;;;;0.22;0.22;;;;;;;;;;5114422;28;20107;-68
2022/02/05 16:48:47;;;;;;;0.28;0.22;;;;;;;;;;5114130;28;20043;-67
2022/02/05 16:51:15;;;;;;;0.30;0.30;;;;;;;;;;5095601;28;20053;-67
2022/02/05 16:53:43;;;;;;;0.38;0.38;;;;;;;;;;5113869;28;20408;-68
2022/02/05 16:56:09;;;;;;;0.47;0.30;;;;;;;;;;5114085;28;20039;-67
2022/02/05 16:58:38;;;;;;;0.55;0.30;;;;;;;;;;5113960;28;20106;-67
2022/02/05 17:01:06;;;;;;;0.55;0.43;;;;;;;;;;5113819;28;20043;-67
2022/02/05 17:03:33;;;;;;;0.20;0.20;;;;;;;;;;5113965;28;20047;-67
2022/02/05 17:06:00;;;;;;;0.50;0.40;;;;;;;;;;5113704;28;20047;-67
2022/02/05 17:08:31;;;;;;;0.45;0.30;;;;;;;;;;5113950;28;20474;-67
2022/02/05 17:10:58;;;;;;;0.30;0.30;;;;;;;;;;5113858;28;20019;-67
2022/02/05 17:13:24;;;;;;;0.38;0.30;;;;;;;;;;5113870;28;20466;-67
2022/02/05 17:15:51;;;;;;;1.42;0.55;;;;;;;;;;5113665;28;20028;-67
2022/02/05 17:18:24;;;;;;;0.30;0.30;;;;;;;;;;5113709;28;20375;-68
2022/02/05 17:20:53;;;;;;;0.40;0.40;;;;;;;;;;5113782;28;20305;-68
2022/02/05 17:23:23;;;;;;;0.55;0.35;;;;;;;;;;5113374;28;20047;-68
2022/02/05 17:25:49;;;;;;;0.45;0.40;;;;;;;;;;5113323;28;20054;-68
2022/02/05 17:28:15;;;;;;;0.43;0.30;;;;;;;;;;5113662;28;20435;-68
2022/02/05 17:30:41;;;;;;;0.20;0.20;;;;;;;;;;5113232;28;20123;-67
2022/02/05 17:33:09;;;;;;;0.50;0.30;;;;;;;;;;5113042;28;20015;-67
2022/02/05 17:35:40;;;;;;;0.50;0.45;;;;;;;;;;5113416;28;20059;-67
2022/02/05 17:38:06;;;;;;;1.05;0.43;;;;;;;;;;5113010;28;20098;-67
2022/02/05 17:40:33;;;;;;;0.30;0.28;;;;;;;;;;5113318;28;20152;-67
2022/02/05 17:42:59;;;;;;;0.40;0.40;;;;;;;;;;5112934;28;20020;-67
2022/02/05 17:45:25;;;;;;;0.52;0.47;;;;;;;;;;5112959;28;20054;-67
2022/02/05 17:47:52;;;;;;;0.40;0.35;;;;;;;;;;5112423;28;20027;-67
2022/02/05 17:50:18;;;;;;;0.65;0.50;;;;;;;;;;5113070;28;20466;-67
2022/02/05 17:52:44;;;;;;;0.73;0.40;;;;;;;;;;5112569;28;20470;-67
2022/02/05 17:55:15;;;;;;;0.43;0.40;;;;;;;;;;5112655;28;20028;-67
2022/02/05 17:57:44;;;;;;;0.30;0.30;;;;;;;;;;5112600;28;20024;-67
2022/02/05 18:00:10;;;;;;;0.70;0.50;;;;;;;;;;5113270;28;20066;-67
2022/02/05 18:02:36;;;;;;;0.75;0.57;;;;;;;;;;5112347;28;20047;-67
2022/02/05 18:05:04;;;;;;;0.47;0.47;;;;;;;;;;5113202;28;20054;-67
2022/02/05 18:07:45;;;;;;;0.70;0.60;;;;;;;;;;5112490;28;20035;-67
2022/02/05 18:12:56;;;;;;;0.43;0.38;;;;;;;;;;5112825;28;20027;-68